sensor_id;sensor_type;location;lat;lon;timestamp;temperature;humidity
17948;DHT22;9099;47.958;11.366;2023-03-14T00:02:23;11.60;99.90
17948;DHT22;9099;47.958;11.366;2023-03-14T00:04:50;11.60;99.90
17948;DHT22;9099;47.958;11.366;2023-03-14T00:07:20;11.60;99.90
17948;DHT22;9099;47.958;11.366;2023-03-14T00:09:46;11.60;99.90
17948;DHT22;9099;47.958;11.366;2023-03-14T00:12:13;11.60;99.90
17948;DHT22;9099;47.958;11.366;2023-03-14T00:14:40;11.50;99.90
17948;DHT22;9099;47.958;11.366;2023-03-14T00:17:09;11.60;99.90
17948;DHT22;9099;47.958;11.366;2023-03-14T00:19:37;11.50;99.90
17948;DHT22;9099;47.958;11.366;2023-03-14T00:22:04;11.50;99.90
17948;DHT22;9099;47.958;11.366;2023-03-14T00:24:31;11.50;99.90
17948;DHT22;9099;47.958;11.366;2023-03-14T00:26:57;11.40;99.90
17948;DHT22;9099;47.958;11.366;2023-03-14T00:29:24;11.40;99.90
17948;DHT22;9099;47.958;11.366;2023-03-14T00:31:51;11.40;99.90
17948;DHT22;9099;47.958;11.366;2023-03-14T00:34:18;11.30;99.90
17948;DHT22;9099;47.958;11.366;2023-03-14T00:36:46;11.40;99.90
17948;DHT22;9099;47.958;11.366;2023-03-14T00:39:13;11.40;99.90
17948;DHT22;9099;47.958;11.366;2023-03-14T00:41:40;11.50;99.90
17948;DHT22;9099;47.958;11.366;2023-03-14T00:44:07;11.60;99.90
17948;DHT22;9099;47.958;11.366;2023-03-14T00:46:33;11.70;99.90
17948;DHT22;9099;47.958;11.366;2023-03-14T00:49:00;11.70;99.90
17948;DHT22;9099;47.958;11.366;2023-03-14T00:51:27;11.80;99.90
17948;DHT22;9099;47.958;11.366;2023-03-14T00:53:55;11.80;99.90
17948;DHT22;9099;47.958;11.366;2023-03-14T00:56:22;11.80;99.90
17948;DHT22;9099;47.958;11.366;2023-03-14T00:58:49;11.70;99.90
17948;DHT22;9099;47.958;11.366;2023-03-14T01:01:19;11.70;99.90
17948;DHT22;9099;47.958;11.366;2023-03-14T01:03:46;11.70;99.90
17948;DHT22;9099;47.958;11.366;2023-03-14T01:06:15;11.60;99.90
17948;DHT22;9099;47.958;11.366;2023-03-14T01:08:42;11.60;99.90
17948;DHT22;9099;47.958;11.366;2023-03-14T01:11:13;11.50;99.90
17948;DHT22;9099;47.958;11.366;2023-03-14T01:13:40;11.50;99.90
17948;DHT22;9099;47.958;11.366;2023-03-14T01:16:09;11.50;99.90
17948;DHT22;9099;47.958;11.366;2023-03-14T01:18:37;11.50;99.90
17948;DHT22;9099;47.958;11.366;2023-03-14T01:21:10;11.40;99.90
17948;DHT22;9099;47.958;11.366;2023-03-14T01:23:37;11.30;99.90
17948;DHT22;9099;47.958;11.366;2023-03-14T01:26:04;11.30;99.90
17948;DHT22;9099;47.958;11.366;2023-03-14T01:28:32;11.20;99.90
17948;DHT22;9099;47.958;11.366;2023-03-14T01:31:02;11.10;99.90
17948;DHT22;9099;47.958;11.366;2023-03-14T01:33:29;11.10;99.90
17948;DHT22;9099;47.958;11.366;2023-03-14T01:35:56;11.00;99.90
17948;DHT22;9099;47.958;11.366;2023-03-14T01:38:23;10.90;99.90
17948;DHT22;9099;47.958;11.366;2023-03-14T01:40:50;10.90;99.90
17948;DHT22;9099;47.958;11.366;2023-03-14T01:43:18;10.90;99.90
17948;DHT22;9099;47.958;11.366;2023-03-14T01:46:21;10.90;99.90
17948;DHT22;9099;47.958;11.366;2023-03-14T01:49:02;10.90;99.90
17948;DHT22;9099;47.958;11.366;2023-03-14T01:51:34;10.90;99.90
17948;DHT22;9099;47.958;11.366;2023-03-14T01:54:07;11.00;99.90
17948;DHT22;9099;47.958;11.366;2023-03-14T01:56:35;10.90;99.90
17948;DHT22;9099;47.958;11.366;2023-03-14T01:59:04;10.90;99.90
17948;DHT22;9099;47.958;11.366;2023-03-14T02:01:34;10.80;99.90
17948;DHT22;9099;47.958;11.366;2023-03-14T02:04:03;10.80;99.90
17948;DHT22;9099;47.958;11.366;2023-03-14T02:06:37;10.80;99.90
17948;DHT22;9099;47.958;11.366;2023-03-14T02:09:04;10.70;99.90
17948;DHT22;9099;47.958;11.366;2023-03-14T02:11:31;10.70;99.90
17948;DHT22;9099;47.958;11.366;2023-03-14T02:13:59;10.50;99.90
17948;DHT22;9099;47.958;11.366;2023-03-14T02:16:27;10.40;99.90
17948;DHT22;9099;47.958;11.366;2023-03-14T02:18:55;10.30;99.90
17948;DHT22;9099;47.958;11.366;2023-03-14T02:21:26;10.20;99.90
17948;DHT22;9099;47.958;11.366;2023-03-14T02:24:02;10.20;99.90
17948;DHT22;9099;47.958;11.366;2023-03-14T02:26:35;10.30;99.90
17948;DHT22;9099;47.958;11.366;2023-03-14T02:29:05;10.30;99.90
17948;DHT22;9099;47.958;11.366;2023-03-14T02:31:32;10.20;99.90
17948;DHT22;9099;47.958;11.366;2023-03-14T02:34:00;10.20;99.90
17948;DHT22;9099;47.958;11.366;2023-03-14T02:36:27;10.10;99.90
17948;DHT22;9099;47.958;11.366;2023-03-14T02:39:00;10.00;99.90
17948;DHT22;9099;47.958;11.366;2023-03-14T02:41:29;10.00;99.90
17948;DHT22;9099;47.958;11.366;2023-03-14T02:43:56;10.00;99.90
17948;DHT22;9099;47.958;11.366;2023-03-14T02:46:25;9.90;99.90
17948;DHT22;9099;47.958;11.366;2023-03-14T02:48:55;9.90;99.90
17948;DHT22;9099;47.958;11.366;2023-03-14T02:51:24;9.70;99.90
17948;DHT22;9099;47.958;11.366;2023-03-14T02:53:52;9.60;99.90
17948;DHT22;9099;47.958;11.366;2023-03-14T02:56:19;9.50;99.90
17948;DHT22;9099;47.958;11.366;2023-03-14T02:58:45;9.40;99.90
17948;DHT22;9099;47.958;11.366;2023-03-14T03:01:12;9.20;99.90
17948;DHT22;9099;47.958;11.366;2023-03-14T03:03:41;9.10;99.90
17948;DHT22;9099;47.958;11.366;2023-03-14T03:06:08;9.00;99.90
17948;DHT22;9099;47.958;11.366;2023-03-14T03:08:34;8.90;99.90
17948;DHT22;9099;47.958;11.366;2023-03-14T03:11:02;8.90;99.90
17948;DHT22;9099;47.958;11.366;2023-03-14T03:13:28;8.90;99.90
17948;DHT22;9099;47.958;11.366;2023-03-14T03:15:55;8.90;99.90
17948;DHT22;9099;47.958;11.366;2023-03-14T03:18:22;8.90;99.90
17948;DHT22;9099;47.958;11.366;2023-03-14T03:20:50;8.80;99.90
17948;DHT22;9099;47.958;11.366;2023-03-14T03:23:17;8.70;99.90
17948;DHT22;9099;47.958;11.366;2023-03-14T03:25:48;8.70;99.90
17948;DHT22;9099;47.958;11.366;2023-03-14T03:28:15;8.60;99.90
17948;DHT22;9099;47.958;11.366;2023-03-14T03:30:42;8.50;99.90
17948;DHT22;9099;47.958;11.366;2023-03-14T03:33:10;8.50;99.90
17948;DHT22;9099;47.958;11.366;2023-03-14T03:35:44;8.50;99.90
17948;DHT22;9099;47.958;11.366;2023-03-14T03:38:12;8.40;99.90
17948;DHT22;9099;47.958;11.366;2023-03-14T03:40:39;8.40;99.90
17948;DHT22;9099;47.958;11.366;2023-03-14T03:43:06;8.40;99.90
17948;DHT22;9099;47.958;11.366;2023-03-14T03:45:34;8.30;99.90
17948;DHT22;9099;47.958;11.366;2023-03-14T03:48:01;8.30;99.90
17948;DHT22;9099;47.958;11.366;2023-03-14T03:50:27;8.30;99.90
17948;DHT22;9099;47.958;11.366;2023-03-14T03:52:54;8.30;99.90
17948;DHT22;9099;47.958;11.366;2023-03-14T03:55:22;8.30;99.90
17948;DHT22;9099;47.958;11.366;2023-03-14T03:57:50;8.40;99.90
17948;DHT22;9099;47.958;11.366;2023-03-14T04:00:18;8.40;99.90
17948;DHT22;9099;47.958;11.366;2023-03-14T04:02:44;8.40;99.90
17948;DHT22;9099;47.958;11.366;2023-03-14T04:05:11;8.40;99.90
17948;DHT22;9099;47.958;11.366;2023-03-14T04:07:38;8.40;99.90
17948;DHT22;9099;47.958;11.366;2023-03-14T04:10:05;8.40;99.90
17948;DHT22;9099;47.958;11.366;2023-03-14T04:12:33;8.40;99.90
17948;DHT22;9099;47.958;11.366;2023-03-14T04:15:00;8.40;99.90
17948;DHT22;9099;47.958;11.366;2023-03-14T04:17:27;8.40;99.90
17948;DHT22;9099;47.958;11.366;2023-03-14T04:19:54;8.30;99.90
17948;DHT22;9099;47.958;11.366;2023-03-14T04:22:21;8.30;99.90
17948;DHT22;9099;47.958;11.366;2023-03-14T04:24:47;8.30;99.90
17948;DHT22;9099;47.958;11.366;2023-03-14T04:27:14;8.30;99.90
17948;DHT22;9099;47.958;11.366;2023-03-14T04:29:43;8.30;99.90
17948;DHT22;9099;47.958;11.366;2023-03-14T04:32:09;8.40;99.90
17948;DHT22;9099;47.958;11.366;2023-03-14T04:34:36;8.40;99.90
17948;DHT22;9099;47.958;11.366;2023-03-14T04:37:03;8.40;99.90
17948;DHT22;9099;47.958;11.366;2023-03-14T04:39:30;8.40;99.90
17948;DHT22;9099;47.958;11.366;2023-03-14T04:41:57;8.40;99.90
17948;DHT22;9099;47.958;11.366;2023-03-14T04:44:24;8.40;99.90
17948;DHT22;9099;47.958;11.366;2023-03-14T04:46:52;8.50;99.90
17948;DHT22;9099;47.958;11.366;2023-03-14T04:49:19;8.50;99.90
17948;DHT22;9099;47.958;11.366;2023-03-14T04:51:46;8.50;99.90
17948;DHT22;9099;47.958;11.366;2023-03-14T04:54:12;8.40;99.90
17948;DHT22;9099;47.958;11.366;2023-03-14T04:56:39;8.50;99.90
17948;DHT22;9099;47.958;11.366;2023-03-14T04:59:06;8.50;99.90
17948;DHT22;9099;47.958;11.366;2023-03-14T05:01:33;8.50;99.90
17948;DHT22;9099;47.958;11.366;2023-03-14T05:04:01;8.40;99.90
17948;DHT22;9099;47.958;11.366;2023-03-14T05:06:28;8.40;99.90
17948;DHT22;9099;47.958;11.366;2023-03-14T05:08:55;8.50;99.90
17948;DHT22;9099;47.958;11.366;2023-03-14T05:11:22;8.50;99.90
17948;DHT22;9099;47.958;11.366;2023-03-14T05:13:49;8.40;99.90
17948;DHT22;9099;47.958;11.366;2023-03-14T05:16:16;8.40;99.90
17948;DHT22;9099;47.958;11.366;2023-03-14T05:18:42;8.50;99.90
17948;DHT22;9099;47.958;11.366;2023-03-14T05:21:11;8.50;99.90
17948;DHT22;9099;47.958;11.366;2023-03-14T05:23:37;8.60;99.90
17948;DHT22;9099;47.958;11.366;2023-03-14T05:26:05;8.50;99.90
17948;DHT22;9099;47.958;11.366;2023-03-14T05:28:32;8.50;99.90
17948;DHT22;9099;47.958;11.366;2023-03-14T05:30:58;8.50;99.90
17948;DHT22;9099;47.958;11.366;2023-03-14T05:33:25;8.50;99.90
17948;DHT22;9099;47.958;11.366;2023-03-14T05:35:52;8.50;99.90
17948;DHT22;9099;47.958;11.366;2023-03-14T05:38:20;8.50;99.90
17948;DHT22;9099;47.958;11.366;2023-03-14T05:40:47;8.40;99.90
17948;DHT22;9099;47.958;11.366;2023-03-14T05:43:14;8.50;99.90
17948;DHT22;9099;47.958;11.366;2023-03-14T05:45:42;8.40;99.90
17948;DHT22;9099;47.958;11.366;2023-03-14T05:48:09;8.50;99.90
17948;DHT22;9099;47.958;11.366;2023-03-14T05:50:36;8.50;99.90
17948;DHT22;9099;47.958;11.366;2023-03-14T05:53:03;8.50;99.90
17948;DHT22;9099;47.958;11.366;2023-03-14T05:55:31;8.50;99.90
17948;DHT22;9099;47.958;11.366;2023-03-14T05:57:58;8.60;99.90
17948;DHT22;9099;47.958;11.366;2023-03-14T06:00:24;8.60;99.90
17948;DHT22;9099;47.958;11.366;2023-03-14T06:02:51;8.50;99.90
17948;DHT22;9099;47.958;11.366;2023-03-14T06:05:18;8.50;99.90
17948;DHT22;9099;47.958;11.366;2023-03-14T06:07:45;8.50;99.90
17948;DHT22;9099;47.958;11.366;2023-03-14T06:10:12;8.50;99.90
17948;DHT22;9099;47.958;11.366;2023-03-14T06:12:40;8.60;99.90
17948;DHT22;9099;47.958;11.366;2023-03-14T06:15:08;8.60;99.90
17948;DHT22;9099;47.958;11.366;2023-03-14T06:17:34;8.60;99.90
17948;DHT22;9099;47.958;11.366;2023-03-14T06:20:01;8.60;99.90
17948;DHT22;9099;47.958;11.366;2023-03-14T06:22:28;8.60;99.90
17948;DHT22;9099;47.958;11.366;2023-03-14T06:24:55;8.60;99.90
17948;DHT22;9099;47.958;11.366;2023-03-14T06:27:22;8.70;99.90
17948;DHT22;9099;47.958;11.366;2023-03-14T06:29:50;8.70;99.90
17948;DHT22;9099;47.958;11.366;2023-03-14T06:32:17;8.70;99.90
17948;DHT22;9099;47.958;11.366;2023-03-14T06:34:44;8.80;99.90
17948;DHT22;9099;47.958;11.366;2023-03-14T06:37:11;8.90;99.90
17948;DHT22;9099;47.958;11.366;2023-03-14T06:39:38;9.00;99.90
17948;DHT22;9099;47.958;11.366;2023-03-14T06:42:05;9.10;99.90
17948;DHT22;9099;47.958;11.366;2023-03-14T06:44:32;9.10;99.90
17948;DHT22;9099;47.958;11.366;2023-03-14T06:47:00;9.20;99.90
17948;DHT22;9099;47.958;11.366;2023-03-14T06:49:27;9.20;99.90
17948;DHT22;9099;47.958;11.366;2023-03-14T06:51:54;9.20;99.90
17948;DHT22;9099;47.958;11.366;2023-03-14T06:54:21;9.20;99.90
17948;DHT22;9099;47.958;11.366;2023-03-14T06:56:48;9.10;99.90
17948;DHT22;9099;47.958;11.366;2023-03-14T06:59:15;9.20;99.90
17948;DHT22;9099;47.958;11.366;2023-03-14T07:01:42;9.20;99.90
17948;DHT22;9099;47.958;11.366;2023-03-14T07:04:10;9.20;99.90
17948;DHT22;9099;47.958;11.366;2023-03-14T07:06:37;9.20;99.90
17948;DHT22;9099;47.958;11.366;2023-03-14T07:09:05;9.30;99.90
17948;DHT22;9099;47.958;11.366;2023-03-14T07:11:32;9.20;99.90
17948;DHT22;9099;47.958;11.366;2023-03-14T07:14:00;9.20;99.90
17948;DHT22;9099;47.958;11.366;2023-03-14T07:16:26;9.20;99.90
17948;DHT22;9099;47.958;11.366;2023-03-14T07:18:56;9.20;99.90
17948;DHT22;9099;47.958;11.366;2023-03-14T07:21:25;9.30;99.90
17948;DHT22;9099;47.958;11.366;2023-03-14T07:23:52;9.30;99.90
17948;DHT22;9099;47.958;11.366;2023-03-14T07:26:18;9.40;99.90
17948;DHT22;9099;47.958;11.366;2023-03-14T07:28:45;9.40;99.90
17948;DHT22;9099;47.958;11.366;2023-03-14T07:31:12;9.40;99.90
17948;DHT22;9099;47.958;11.366;2023-03-14T07:33:39;9.40;99.90
17948;DHT22;9099;47.958;11.366;2023-03-14T07:36:07;9.50;99.90
17948;DHT22;9099;47.958;11.366;2023-03-14T07:38:35;9.50;99.90
17948;DHT22;9099;47.958;11.366;2023-03-14T07:41:03;9.50;99.90
17948;DHT22;9099;47.958;11.366;2023-03-14T07:43:31;9.60;99.90
17948;DHT22;9099;47.958;11.366;2023-03-14T07:45:58;9.60;99.90
17948;DHT22;9099;47.958;11.366;2023-03-14T07:48:25;9.60;99.90
17948;DHT22;9099;47.958;11.366;2023-03-14T07:50:53;9.70;99.90
17948;DHT22;9099;47.958;11.366;2023-03-14T07:53:20;9.80;99.90
17948;DHT22;9099;47.958;11.366;2023-03-14T07:55:50;9.90;99.90
17948;DHT22;9099;47.958;11.366;2023-03-14T07:58:17;10.00;99.90
17948;DHT22;9099;47.958;11.366;2023-03-14T08:00:44;10.10;99.90
17948;DHT22;9099;47.958;11.366;2023-03-14T08:03:10;10.10;99.90
17948;DHT22;9099;47.958;11.366;2023-03-14T08:05:38;10.20;99.90
17948;DHT22;9099;47.958;11.366;2023-03-14T08:08:05;10.30;99.90
17948;DHT22;9099;47.958;11.366;2023-03-14T08:10:33;10.30;99.90
17948;DHT22;9099;47.958;11.366;2023-03-14T08:13:01;10.20;99.90
17948;DHT22;9099;47.958;11.366;2023-03-14T08:15:29;10.20;99.90
17948;DHT22;9099;47.958;11.366;2023-03-14T08:17:56;10.20;99.90
17948;DHT22;9099;47.958;11.366;2023-03-14T08:20:25;10.10;99.90
17948;DHT22;9099;47.958;11.366;2023-03-14T08:22:54;10.10;99.90
17948;DHT22;9099;47.958;11.366;2023-03-14T08:25:21;10.10;99.90
17948;DHT22;9099;47.958;11.366;2023-03-14T08:27:48;10.00;99.90
17948;DHT22;9099;47.958;11.366;2023-03-14T08:30:18;10.10;99.90
17948;DHT22;9099;47.958;11.366;2023-03-14T08:32:45;10.10;99.90
17948;DHT22;9099;47.958;11.366;2023-03-14T08:35:12;10.00;99.90
17948;DHT22;9099;47.958;11.366;2023-03-14T08:37:39;10.00;99.90
17948;DHT22;9099;47.958;11.366;2023-03-14T08:40:07;10.00;99.90
17948;DHT22;9099;47.958;11.366;2023-03-14T08:42:35;10.00;99.90
17948;DHT22;9099;47.958;11.366;2023-03-14T08:45:03;10.00;99.90
17948;DHT22;9099;47.958;11.366;2023-03-14T08:47:32;10.00;99.90
17948;DHT22;9099;47.958;11.366;2023-03-14T08:49:59;10.00;99.90
17948;DHT22;9099;47.958;11.366;2023-03-14T08:52:26;10.10;99.90
17948;DHT22;9099;47.958;11.366;2023-03-14T08:54:52;10.10;99.90
17948;DHT22;9099;47.958;11.366;2023-03-14T08:57:19;10.10;99.90
17948;DHT22;9099;47.958;11.366;2023-03-14T08:59:47;10.10;99.90
17948;DHT22;9099;47.958;11.366;2023-03-14T09:02:14;10.00;99.90
17948;DHT22;9099;47.958;11.366;2023-03-14T09:04:42;10.00;99.90
17948;DHT22;9099;47.958;11.366;2023-03-14T09:07:09;10.00;99.90
17948;DHT22;9099;47.958;11.366;2023-03-14T09:09:36;10.00;99.90
17948;DHT22;9099;47.958;11.366;2023-03-14T09:12:03;10.10;99.90
17948;DHT22;9099;47.958;11.366;2023-03-14T09:14:31;10.10;99.90
17948;DHT22;9099;47.958;11.366;2023-03-14T09:16:58;10.10;99.90
17948;DHT22;9099;47.958;11.366;2023-03-14T09:19:25;10.20;99.90
17948;DHT22;9099;47.958;11.366;2023-03-14T09:21:54;10.10;99.90
17948;DHT22;9099;47.958;11.366;2023-03-14T09:24:21;10.10;99.90
17948;DHT22;9099;47.958;11.366;2023-03-14T09:26:48;10.10;99.90
17948;DHT22;9099;47.958;11.366;2023-03-14T09:29:14;10.20;99.90
17948;DHT22;9099;47.958;11.366;2023-03-14T09:31:41;10.20;99.90
17948;DHT22;9099;47.958;11.366;2023-03-14T09:34:08;10.20;99.90
17948;DHT22;9099;47.958;11.366;2023-03-14T09:36:35;10.30;99.90
17948;DHT22;9099;47.958;11.366;2023-03-14T09:39:05;10.40;99.90
17948;DHT22;9099;47.958;11.366;2023-03-14T09:41:34;10.40;99.90
17948;DHT22;9099;47.958;11.366;2023-03-14T09:44:05;10.40;99.90
17948;DHT22;9099;47.958;11.366;2023-03-14T09:46:36;10.40;99.90
17948;DHT22;9099;47.958;11.366;2023-03-14T09:49:10;10.40;99.90
17948;DHT22;9099;47.958;11.366;2023-03-14T09:51:37;10.50;99.90
17948;DHT22;9099;47.958;11.366;2023-03-14T09:54:05;10.50;99.90
17948;DHT22;9099;47.958;11.366;2023-03-14T09:56:35;10.60;99.90
17948;DHT22;9099;47.958;11.366;2023-03-14T09:59:03;10.80;99.90
17948;DHT22;9099;47.958;11.366;2023-03-14T10:01:33;10.90;99.90
17948;DHT22;9099;47.958;11.366;2023-03-14T10:04:04;11.20;99.90
17948;DHT22;9099;47.958;11.366;2023-03-14T10:06:32;11.80;99.90
17948;DHT22;9099;47.958;11.366;2023-03-14T10:09:01;12.60;99.90
17948;DHT22;9099;47.958;11.366;2023-03-14T10:11:30;12.90;99.90
17948;DHT22;9099;47.958;11.366;2023-03-14T10:14:06;13.10;99.90
17948;DHT22;9099;47.958;11.366;2023-03-14T10:16:35;13.40;99.90
17948;DHT22;9099;47.958;11.366;2023-03-14T10:19:04;13.60;99.90
17948;DHT22;9099;47.958;11.366;2023-03-14T10:21:35;13.90;99.90
17948;DHT22;9099;47.958;11.366;2023-03-14T10:24:19;14.60;99.90
17948;DHT22;9099;47.958;11.366;2023-03-14T10:26:49;15.50;99.90
17948;DHT22;9099;47.958;11.366;2023-03-14T10:29:18;16.00;99.90
17948;DHT22;9099;47.958;11.366;2023-03-14T10:31:50;16.00;99.90
17948;DHT22;9099;47.958;11.366;2023-03-14T10:34:21;16.00;99.90
17948;DHT22;9099;47.958;11.366;2023-03-14T10:36:52;15.90;99.90
17948;DHT22;9099;47.958;11.366;2023-03-14T10:39:28;16.00;99.90
17948;DHT22;9099;47.958;11.366;2023-03-14T10:42:05;16.90;99.90
17948;DHT22;9099;47.958;11.366;2023-03-14T10:44:34;17.80;99.90
17948;DHT22;9099;47.958;11.366;2023-03-14T10:47:03;18.50;99.90
17948;DHT22;9099;47.958;11.366;2023-03-14T10:49:33;18.70;99.90
17948;DHT22;9099;47.958;11.366;2023-03-14T10:52:15;19.00;99.90
17948;DHT22;9099;47.958;11.366;2023-03-14T10:54:47;19.20;99.90
17948;DHT22;9099;47.958;11.366;2023-03-14T10:57:15;19.30;99.90
17948;DHT22;9099;47.958;11.366;2023-03-14T10:59:43;19.10;99.90
17948;DHT22;9099;47.958;11.366;2023-03-14T11:02:36;18.70;99.90
17948;DHT22;9099;47.958;11.366;2023-03-14T11:05:15;17.60;99.90
17948;DHT22;9099;47.958;11.366;2023-03-14T11:07:45;16.90;99.90
17948;DHT22;9099;47.958;11.366;2023-03-14T11:10:19;16.30;99.90
17948;DHT22;9099;47.958;11.366;2023-03-14T11:12:58;15.70;99.90
17948;DHT22;9099;47.958;11.366;2023-03-14T11:15:34;15.30;99.90
17948;DHT22;9099;47.958;11.366;2023-03-14T11:18:28;15.00;99.90
17948;DHT22;9099;47.958;11.366;2023-03-14T11:21:08;14.80;99.90
17948;DHT22;9099;47.958;11.366;2023-03-14T11:23:41;14.60;99.90
17948;DHT22;9099;47.958;11.366;2023-03-14T11:26:20;14.50;99.90
17948;DHT22;9099;47.958;11.366;2023-03-14T11:28:57;14.60;99.90
17948;DHT22;9099;47.958;11.366;2023-03-14T11:31:27;14.80;99.90
17948;DHT22;9099;47.958;11.366;2023-03-14T11:33:57;15.00;99.90
17948;DHT22;9099;47.958;11.366;2023-03-14T11:36:28;15.20;99.90
17948;DHT22;9099;47.958;11.366;2023-03-14T11:38:58;15.30;99.90
17948;DHT22;9099;47.958;11.366;2023-03-14T11:41:29;15.20;99.90
17948;DHT22;9099;47.958;11.366;2023-03-14T11:44:00;15.10;99.90
17948;DHT22;9099;47.958;11.366;2023-03-14T11:46:31;14.80;99.90
17948;DHT22;9099;47.958;11.366;2023-03-14T11:49:03;14.60;99.90
17948;DHT22;9099;47.958;11.366;2023-03-14T11:51:34;14.50;99.90
17948;DHT22;9099;47.958;11.366;2023-03-14T11:54:04;14.30;99.90
17948;DHT22;9099;47.958;11.366;2023-03-14T11:56:36;14.40;99.90
17948;DHT22;9099;47.958;11.366;2023-03-14T11:59:11;14.40;99.90
17948;DHT22;9099;47.958;11.366;2023-03-14T12:01:52;14.40;99.90
17948;DHT22;9099;47.958;11.366;2023-03-14T12:07:14;14.30;99.90
17948;DHT22;9099;47.958;11.366;2023-03-14T12:09:44;14.20;99.90
17948;DHT22;9099;47.958;11.366;2023-03-14T12:12:13;14.30;99.90
17948;DHT22;9099;47.958;11.366;2023-03-14T12:14:51;14.20;99.90
17948;DHT22;9099;47.958;11.366;2023-03-14T12:17:20;14.00;99.90
17948;DHT22;9099;47.958;11.366;2023-03-14T12:19:50;13.80;99.90
17948;DHT22;9099;47.958;11.366;2023-03-14T12:22:27;13.70;99.90
17948;DHT22;9099;47.958;11.366;2023-03-14T12:25:02;13.60;99.90
17948;DHT22;9099;47.958;11.366;2023-03-14T12:30:39;13.50;99.90
17948;DHT22;9099;47.958;11.366;2023-03-14T12:33:31;13.30;99.90
17948;DHT22;9099;47.958;11.366;2023-03-14T12:36:18;13.30;99.90
17948;DHT22;9099;47.958;11.366;2023-03-14T12:39:10;13.30;99.90
17948;DHT22;9099;47.958;11.366;2023-03-14T12:41:44;13.30;99.90
17948;DHT22;9099;47.958;11.366;2023-03-14T12:44:45;13.00;99.90
17948;DHT22;9099;47.958;11.366;2023-03-14T12:50:21;12.60;99.90
17948;DHT22;9099;47.958;11.366;2023-03-14T12:55:41;12.70;99.90
17948;DHT22;9099;47.958;11.366;2023-03-14T12:58:15;12.80;99.90
17948;DHT22;9099;47.958;11.366;2023-03-14T13:00:43;12.70;99.90
17948;DHT22;9099;47.958;11.366;2023-03-14T13:03:18;12.60;99.90
17948;DHT22;9099;47.958;11.366;2023-03-14T13:05:57;12.60;99.90
17948;DHT22;9099;47.958;11.366;2023-03-14T13:08:36;12.50;99.90
17948;DHT22;9099;47.958;11.366;2023-03-14T13:11:06;12.40;99.90
17948;DHT22;9099;47.958;11.366;2023-03-14T13:13:35;12.40;99.90
17948;DHT22;9099;47.958;11.366;2023-03-14T13:16:03;12.40;99.90
17948;DHT22;9099;47.958;11.366;2023-03-14T13:18:34;12.20;99.90
17948;DHT22;9099;47.958;11.366;2023-03-14T13:21:06;12.20;99.90
17948;DHT22;9099;47.958;11.366;2023-03-14T13:23:37;12.00;99.90
17948;DHT22;9099;47.958;11.366;2023-03-14T13:26:09;11.80;99.90
17948;DHT22;9099;47.958;11.366;2023-03-14T13:28:37;11.70;99.90
17948;DHT22;9099;47.958;11.366;2023-03-14T13:31:05;11.60;99.90
17948;DHT22;9099;47.958;11.366;2023-03-14T13:33:33;11.40;99.90
17948;DHT22;9099;47.958;11.366;2023-03-14T13:36:01;11.10;99.90
17948;DHT22;9099;47.958;11.366;2023-03-14T13:38:32;10.90;99.90
17948;DHT22;9099;47.958;11.366;2023-03-14T13:41:00;10.70;99.90
17948;DHT22;9099;47.958;11.366;2023-03-14T13:43:29;10.50;99.90
17948;DHT22;9099;47.958;11.366;2023-03-14T13:46:03;10.20;99.90
17948;DHT22;9099;47.958;11.366;2023-03-14T13:48:32;10.00;99.90
17948;DHT22;9099;47.958;11.366;2023-03-14T13:51:02;9.80;99.90
17948;DHT22;9099;47.958;11.366;2023-03-14T13:53:31;9.70;99.90
17948;DHT22;9099;47.958;11.366;2023-03-14T13:56:02;9.60;99.90
17948;DHT22;9099;47.958;11.366;2023-03-14T13:58:30;9.50;99.90
17948;DHT22;9099;47.958;11.366;2023-03-14T14:01:13;9.50;99.90
17948;DHT22;9099;47.958;11.366;2023-03-14T14:03:42;9.40;99.90
17948;DHT22;9099;47.958;11.366;2023-03-14T14:06:21;9.40;99.90
17948;DHT22;9099;47.958;11.366;2023-03-14T14:08:49;9.40;99.90
17948;DHT22;9099;47.958;11.366;2023-03-14T14:11:22;9.30;99.90
17948;DHT22;9099;47.958;11.366;2023-03-14T14:13:50;9.30;99.90
17948;DHT22;9099;47.958;11.366;2023-03-14T14:16:21;9.30;99.90
17948;DHT22;9099;47.958;11.366;2023-03-14T14:18:51;9.10;99.90
17948;DHT22;9099;47.958;11.366;2023-03-14T14:21:19;9.00;99.90
17948;DHT22;9099;47.958;11.366;2023-03-14T14:23:46;8.80;99.90
17948;DHT22;9099;47.958;11.366;2023-03-14T14:26:16;8.80;99.90
17948;DHT22;9099;47.958;11.366;2023-03-14T14:28:44;8.60;99.90
17948;DHT22;9099;47.958;11.366;2023-03-14T14:31:20;8.50;99.90
17948;DHT22;9099;47.958;11.366;2023-03-14T14:33:54;8.50;99.90
17948;DHT22;9099;47.958;11.366;2023-03-14T14:36:23;8.40;99.90
17948;DHT22;9099;47.958;11.366;2023-03-14T14:38:52;8.30;99.90
17948;DHT22;9099;47.958;11.366;2023-03-14T14:41:20;8.30;99.90
17948;DHT22;9099;47.958;11.366;2023-03-14T14:43:48;8.30;99.90
17948;DHT22;9099;47.958;11.366;2023-03-14T14:46:18;8.10;99.90
17948;DHT22;9099;47.958;11.366;2023-03-14T14:48:45;7.90;99.90
17948;DHT22;9099;47.958;11.366;2023-03-14T14:51:23;7.70;99.90
17948;DHT22;9099;47.958;11.366;2023-03-14T14:53:59;7.60;99.90
17948;DHT22;9099;47.958;11.366;2023-03-14T14:56:28;7.50;99.90
17948;DHT22;9099;47.958;11.366;2023-03-14T14:58:57;7.50;99.90
17948;DHT22;9099;47.958;11.366;2023-03-14T15:01:26;7.50;99.90
17948;DHT22;9099;47.958;11.366;2023-03-14T15:03:57;7.50;99.90
17948;DHT22;9099;47.958;11.366;2023-03-14T15:06:28;7.60;99.90
17948;DHT22;9099;47.958;11.366;2023-03-14T15:08:55;7.70;99.90
17948;DHT22;9099;47.958;11.366;2023-03-14T15:11:23;7.70;99.90
17948;DHT22;9099;47.958;11.366;2023-03-14T15:13:52;7.70;99.90
17948;DHT22;9099;47.958;11.366;2023-03-14T15:16:20;7.70;99.90
17948;DHT22;9099;47.958;11.366;2023-03-14T15:18:52;7.70;99.90
17948;DHT22;9099;47.958;11.366;2023-03-14T15:21:19;7.70;99.90
17948;DHT22;9099;47.958;11.366;2023-03-14T15:23:46;7.70;99.90
17948;DHT22;9099;47.958;11.366;2023-03-14T15:26:16;7.70;99.90
17948;DHT22;9099;47.958;11.366;2023-03-14T15:28:43;7.80;99.90
17948;DHT22;9099;47.958;11.366;2023-03-14T15:31:13;7.70;99.90
17948;DHT22;9099;47.958;11.366;2023-03-14T15:33:41;7.70;99.90
17948;DHT22;9099;47.958;11.366;2023-03-14T15:36:18;7.60;99.90
17948;DHT22;9099;47.958;11.366;2023-03-14T15:38:45;7.50;99.90
17948;DHT22;9099;47.958;11.366;2023-03-14T15:41:12;7.50;99.90
17948;DHT22;9099;47.958;11.366;2023-03-14T15:43:41;7.40;99.90
17948;DHT22;9099;47.958;11.366;2023-03-14T15:46:08;7.30;99.90
17948;DHT22;9099;47.958;11.366;2023-03-14T15:48:37;7.30;99.90
17948;DHT22;9099;47.958;11.366;2023-03-14T15:51:04;7.40;99.90
17948;DHT22;9099;47.958;11.366;2023-03-14T15:53:31;7.40;99.90
17948;DHT22;9099;47.958;11.366;2023-03-14T15:55:58;7.40;99.90
17948;DHT22;9099;47.958;11.366;2023-03-14T15:58:25;7.40;99.90
17948;DHT22;9099;47.958;11.366;2023-03-14T16:00:51;7.40;99.90
17948;DHT22;9099;47.958;11.366;2023-03-14T16:03:18;7.40;99.90